sensor_id;sensor_type;location;lat;lon;timestamp;temperature;humidity
78475;SHT31;67766;51.964;5.660;2023-05-19T13:59:37;26.3;24.6
78475;SHT31;67766;51.964;5.660;2023-05-19T14:02:11;26.2;24.4
78475;SHT31;67766;51.964;5.660;2023-05-19T14:04:41;26.1;23.6
78475;SHT31;67766;51.964;5.660;2023-05-19T14:07:10;26.0;24.3
78475;SHT31;67766;51.964;5.660;2023-05-19T14:09:40;25.8;25.0
78475;SHT31;67766;51.964;5.660;2023-05-19T14:12:09;25.7;25.7
78475;SHT31;67766;51.964;5.660;2023-05-19T14:14:40;25.5;26.9
78475;SHT31;67766;51.964;5.660;2023-05-19T14:17:09;25.4;27.2
78475;SHT31;67766;51.964;5.660;2023-05-19T14:19:39;25.3;26.6
78475;SHT31;67766;51.964;5.660;2023-05-19T14:22:09;25.1;26.6
78475;SHT31;67766;51.964;5.660;2023-05-19T14:24:39;25.0;26.8
78475;SHT31;67766;51.964;5.660;2023-05-19T14:27:09;24.9;26.6
78475;SHT31;67766;51.964;5.660;2023-05-19T14:29:40;24.8;27.2
78475;SHT31;67766;51.964;5.660;2023-05-19T14:32:10;24.7;27.7
78475;SHT31;67766;51.964;5.660;2023-05-19T14:34:40;24.6;27.1
78475;SHT31;67766;51.964;5.660;2023-05-19T14:37:10;24.6;27.1
78475;SHT31;67766;51.964;5.660;2023-05-19T14:39:39;24.5;26.8
78475;SHT31;67766;51.964;5.660;2023-05-19T14:42:09;24.5;26.8
78475;SHT31;67766;51.964;5.660;2023-05-19T14:44:39;24.4;27.4
78475;SHT31;67766;51.964;5.660;2023-05-19T14:47:11;24.4;27.2
78475;SHT31;67766;51.964;5.660;2023-05-19T14:49:40;24.4;26.7
78475;SHT31;67766;51.964;5.660;2023-05-19T14:52:10;24.3;26.6
78475;SHT31;67766;51.964;5.660;2023-05-19T14:54:40;24.3;26.7
78475;SHT31;67766;51.964;5.660;2023-05-19T14:57:10;24.3;27.4
78475;SHT31;67766;51.964;5.660;2023-05-19T14:59:39;24.3;27.5
78475;SHT31;67766;51.964;5.660;2023-05-19T15:02:09;24.2;27.2
78475;SHT31;67766;51.964;5.660;2023-05-19T15:04:39;24.2;27.1
78475;SHT31;67766;51.964;5.660;2023-05-19T15:07:08;24.2;27.0
78475;SHT31;67766;51.964;5.660;2023-05-19T15:09:38;24.2;27.1
78475;SHT31;67766;51.964;5.660;2023-05-19T15:12:07;24.1;26.7
78475;SHT31;67766;51.964;5.660;2023-05-19T15:14:37;24.1;27.4
78475;SHT31;67766;51.964;5.660;2023-05-19T15:17:07;24.1;27.4
78475;SHT31;67766;51.964;5.660;2023-05-19T15:19:37;24.0;27.4
78475;SHT31;67766;51.964;5.660;2023-05-19T15:22:08;24.0;27.0
78475;SHT31;67766;51.964;5.660;2023-05-19T15:24:37;24.0;27.3
78475;SHT31;67766;51.964;5.660;2023-05-19T15:27:07;24.0;27.5
78475;SHT31;67766;51.964;5.660;2023-05-19T15:29:37;24.0;27.3
78475;SHT31;67766;51.964;5.660;2023-05-19T15:32:07;24.0;27.9
78475;SHT31;67766;51.964;5.660;2023-05-19T15:34:37;24.0;27.6
78475;SHT31;67766;51.964;5.660;2023-05-19T15:37:09;24.1;27.8
78475;SHT31;67766;51.964;5.660;2023-05-19T15:39:38;24.1;28.1
78475;SHT31;67766;51.964;5.660;2023-05-19T15:42:08;24.1;27.9
78475;SHT31;67766;51.964;5.660;2023-05-19T15:44:37;24.1;27.3
78475;SHT31;67766;51.964;5.660;2023-05-19T15:47:09;24.1;28.4
78475;SHT31;67766;51.964;5.660;2023-05-19T15:49:38;24.1;28.2
78475;SHT31;67766;51.964;5.660;2023-05-19T15:52:08;24.1;28.1
78475;SHT31;67766;51.964;5.660;2023-05-19T15:54:38;24.0;28.5
78475;SHT31;67766;51.964;5.660;2023-05-19T15:57:07;24.0;27.9
78475;SHT31;67766;51.964;5.660;2023-05-19T15:59:37;24.0;28.6
78475;SHT31;67766;51.964;5.660;2023-05-19T16:02:07;24.0;27.8
78475;SHT31;67766;51.964;5.660;2023-05-19T16:04:37;24.1;28.0
78475;SHT31;67766;51.964;5.660;2023-05-19T16:07:06;24.1;30.5
78475;SHT31;67766;51.964;5.660;2023-05-19T16:09:36;24.1;29.2
78475;SHT31;67766;51.964;5.660;2023-05-19T16:12:06;24.1;28.6
78475;SHT31;67766;51.964;5.660;2023-05-19T16:14:38;24.1;28.5
78475;SHT31;67766;51.964;5.660;2023-05-19T16:17:07;24.1;28.3
78475;SHT31;67766;51.964;5.660;2023-05-19T16:19:38;24.1;27.7
78475;SHT31;67766;51.964;5.660;2023-05-19T16:22:07;24.1;27.9
78475;SHT31;67766;51.964;5.660;2023-05-19T16:24:37;24.1;27.5
78475;SHT31;67766;51.964;5.660;2023-05-19T16:27:08;24.1;27.6
78475;SHT31;67766;51.964;5.660;2023-05-19T16:29:38;24.0;26.8
78475;SHT31;67766;51.964;5.660;2023-05-19T16:32:08;24.0;27.5
78475;SHT31;67766;51.964;5.660;2023-05-19T16:34:37;24.0;27.5
78475;SHT31;67766;51.964;5.660;2023-05-19T16:37:09;23.9;27.1
78475;SHT31;67766;51.964;5.660;2023-05-19T16:39:39;23.9;27.5
78475;SHT31;67766;51.964;5.660;2023-05-19T16:42:10;23.8;27.7
78475;SHT31;67766;51.964;5.660;2023-05-19T16:44:39;23.8;28.3
78475;SHT31;67766;51.964;5.660;2023-05-19T16:47:10;23.8;29.1
78475;SHT31;67766;51.964;5.660;2023-05-19T16:49:40;23.7;28.5
78475;SHT31;67766;51.964;5.660;2023-05-19T16:52:10;23.7;28.7
78475;SHT31;67766;51.964;5.660;2023-05-19T16:54:42;23.7;28.5
78475;SHT31;67766;51.964;5.660;2023-05-19T16:57:12;23.6;27.9
78475;SHT31;67766;51.964;5.660;2023-05-19T16:59:42;23.6;27.3
78475;SHT31;67766;51.964;5.660;2023-05-19T17:02:12;23.6;27.6
78475;SHT31;67766;51.964;5.660;2023-05-19T17:04:42;23.6;27.8
78475;SHT31;67766;51.964;5.660;2023-05-19T17:07:13;23.5;28.0
78475;SHT31;67766;51.964;5.660;2023-05-19T17:09:43;23.5;28.2
78475;SHT31;67766;51.964;5.660;2023-05-19T17:12:13;23.5;28.2
78475;SHT31;67766;51.964;5.660;2023-05-19T17:14:43;23.5;28.3
78475;SHT31;67766;51.964;5.660;2023-05-19T17:17:12;23.5;27.8
78475;SHT31;67766;51.964;5.660;2023-05-19T17:19:42;23.5;27.7
78475;SHT31;67766;51.964;5.660;2023-05-19T17:22:12;23.5;28.5
78475;SHT31;67766;51.964;5.660;2023-05-19T17:24:42;23.5;28.3
78475;SHT31;67766;51.964;5.660;2023-05-19T17:27:12;23.5;28.8
78475;SHT31;67766;51.964;5.660;2023-05-19T17:29:42;23.5;29.0
78475;SHT31;67766;51.964;5.660;2023-05-19T17:32:11;23.5;28.1
78475;SHT31;67766;51.964;5.660;2023-05-19T17:34:41;23.5;28.3
78475;SHT31;67766;51.964;5.660;2023-05-19T17:37:11;23.4;28.1
78475;SHT31;67766;51.964;5.660;2023-05-19T17:39:46;23.4;28.6
78475;SHT31;67766;51.964;5.660;2023-05-19T17:42:16;23.4;28.0
78475;SHT31;67766;51.964;5.660;2023-05-19T17:44:46;23.3;28.8
78475;SHT31;67766;51.964;5.660;2023-05-19T17:47:15;23.3;28.8
78475;SHT31;67766;51.964;5.660;2023-05-19T17:49:45;23.3;28.7
78475;SHT31;67766;51.964;5.660;2023-05-19T17:52:15;23.2;28.8
78475;SHT31;67766;51.964;5.660;2023-05-19T17:54:46;23.2;28.5
78475;SHT31;67766;51.964;5.660;2023-05-19T17:57:17;23.2;28.4
78475;SHT31;67766;51.964;5.660;2023-05-19T17:59:47;23.1;28.9
78475;SHT31;67766;51.964;5.660;2023-05-19T18:02:19;23.1;29.4
78475;SHT31;67766;51.964;5.660;2023-05-19T18:04:51;23.1;28.8
78475;SHT31;67766;51.964;5.660;2023-05-19T18:07:21;23.1;29.3
78475;SHT31;67766;51.964;5.660;2023-05-19T18:09:54;23.1;29.3
78475;SHT31;67766;51.964;5.660;2023-05-19T18:12:24;23.1;29.2
78475;SHT31;67766;51.964;5.660;2023-05-19T18:14:54;23.0;28.9
78475;SHT31;67766;51.964;5.660;2023-05-19T18:17:23;23.0;29.5
78475;SHT31;67766;51.964;5.660;2023-05-19T18:19:53;23.0;29.5
78475;SHT31;67766;51.964;5.660;2023-05-19T18:22:22;23.0;29.4
78475;SHT31;67766;51.964;5.660;2023-05-19T18:24:52;22.9;29.5
78475;SHT31;67766;51.964;5.660;2023-05-19T18:27:22;22.9;29.6
78475;SHT31;67766;51.964;5.660;2023-05-19T18:29:54;22.9;29.7
78475;SHT31;67766;51.964;5.660;2023-05-19T18:32:24;22.8;29.9
78475;SHT31;67766;51.964;5.660;2023-05-19T18:34:54;22.8;29.6
78475;SHT31;67766;51.964;5.660;2023-05-19T18:37:24;22.8;29.7
78475;SHT31;67766;51.964;5.660;2023-05-19T18:39:54;22.8;29.4
78475;SHT31;67766;51.964;5.660;2023-05-19T18:42:24;22.7;29.4
78475;SHT31;67766;51.964;5.660;2023-05-19T18:44:54;22.7;29.4
78475;SHT31;67766;51.964;5.660;2023-05-19T18:47:23;22.7;29.6
78475;SHT31;67766;51.964;5.660;2023-05-19T18:49:53;22.6;29.6
78475;SHT31;67766;51.964;5.660;2023-05-19T18:52:23;22.6;29.6
78475;SHT31;67766;51.964;5.660;2023-05-19T18:54:53;22.6;29.9
78475;SHT31;67766;51.964;5.660;2023-05-19T18:57:23;22.6;30.1
78475;SHT31;67766;51.964;5.660;2023-05-19T18:59:53;22.5;29.9
78475;SHT31;67766;51.964;5.660;2023-05-19T19:02:24;22.5;30.3
78475;SHT31;67766;51.964;5.660;2023-05-19T19:04:54;22.4;30.0
78475;SHT31;67766;51.964;5.660;2023-05-19T19:07:24;22.4;30.3
78475;SHT31;67766;51.964;5.660;2023-05-19T19:09:54;22.4;30.2
78475;SHT31;67766;51.964;5.660;2023-05-19T19:12:23;22.3;30.3
78475;SHT31;67766;51.964;5.660;2023-05-19T19:14:53;22.3;30.5
78475;SHT31;67766;51.964;5.660;2023-05-19T19:17:22;22.2;30.5
78475;SHT31;67766;51.964;5.660;2023-05-19T19:19:52;22.2;30.6
78475;SHT31;67766;51.964;5.660;2023-05-19T19:22:22;22.1;30.8
78475;SHT31;67766;51.964;5.660;2023-05-19T19:24:52;22.1;31.0
78475;SHT31;67766;51.964;5.660;2023-05-19T19:27:22;22.0;30.8
78475;SHT31;67766;51.964;5.660;2023-05-19T19:29:56;22.0;30.9
78475;SHT31;67766;51.964;5.660;2023-05-19T19:32:26;21.9;31.3
78475;SHT31;67766;51.964;5.660;2023-05-19T19:34:57;21.9;31.3
78475;SHT31;67766;51.964;5.660;2023-05-19T19:37:27;21.8;31.6
78475;SHT31;67766;51.964;5.660;2023-05-19T19:39:56;21.8;31.6
78475;SHT31;67766;51.964;5.660;2023-05-19T19:42:26;21.7;31.6
78475;SHT31;67766;51.964;5.660;2023-05-19T19:44:56;21.7;31.9
78475;SHT31;67766;51.964;5.660;2023-05-19T19:47:25;21.6;32.0
78475;SHT31;67766;51.964;5.660;2023-05-19T19:49:55;21.5;32.1
78475;SHT31;67766;51.964;5.660;2023-05-19T19:52:25;21.5;32.2
78475;SHT31;67766;51.964;5.660;2023-05-19T19:54:55;21.4;32.2
78475;SHT31;67766;51.964;5.660;2023-05-19T19:57:25;21.4;32.1
78475;SHT31;67766;51.964;5.660;2023-05-19T19:59:55;21.3;32.2
78475;SHT31;67766;51.964;5.660;2023-05-19T20:02:32;21.2;32.4
78475;SHT31;67766;51.964;5.660;2023-05-19T20:05:02;21.2;32.4
78475;SHT31;67766;51.964;5.660;2023-05-19T20:07:32;21.1;32.8
78475;SHT31;67766;51.964;5.660;2023-05-19T20:10:01;21.1;32.8
78475;SHT31;67766;51.964;5.660;2023-05-19T20:12:31;21.1;33.0
78475;SHT31;67766;51.964;5.660;2023-05-19T20:15:00;21.0;33.0
78475;SHT31;67766;51.964;5.660;2023-05-19T20:17:30;21.0;33.1
78475;SHT31;67766;51.964;5.660;2023-05-19T20:20:00;20.9;33.1
78475;SHT31;67766;51.964;5.660;2023-05-19T20:22:34;20.9;33.4
78475;SHT31;67766;51.964;5.660;2023-05-19T20:25:04;20.9;33.2
78475;SHT31;67766;51.964;5.660;2023-05-19T20:27:34;20.8;33.2
78475;SHT31;67766;51.964;5.660;2023-05-19T20:30:04;20.8;33.5
78475;SHT31;67766;51.964;5.660;2023-05-19T20:32:34;20.7;33.8
78475;SHT31;67766;51.964;5.660;2023-05-19T20:35:04;20.7;33.6
78475;SHT31;67766;51.964;5.660;2023-05-19T20:37:35;20.6;33.5
78475;SHT31;67766;51.964;5.660;2023-05-19T20:40:05;20.6;33.6
78475;SHT31;67766;51.964;5.660;2023-05-19T20:42:39;20.5;33.6
78475;SHT31;67766;51.964;5.660;2023-05-19T20:45:09;20.5;34.0
78475;SHT31;67766;51.964;5.660;2023-05-19T20:47:38;20.4;33.8
78475;SHT31;67766;51.964;5.660;2023-05-19T20:50:08;20.4;33.7
78475;SHT31;67766;51.964;5.660;2023-05-19T20:52:38;20.3;33.9
78475;SHT31;67766;51.964;5.660;2023-05-19T20:55:11;20.3;33.9
78475;SHT31;67766;51.964;5.660;2023-05-19T20:57:40;20.2;34.0
78475;SHT31;67766;51.964;5.660;2023-05-19T21:00:11;20.2;34.0
78475;SHT31;67766;51.964;5.660;2023-05-19T21:02:41;20.1;34.1
78475;SHT31;67766;51.964;5.660;2023-05-19T21:05:13;20.1;34.3
78475;SHT31;67766;51.964;5.660;2023-05-19T21:07:44;20.0;34.4
78475;SHT31;67766;51.964;5.660;2023-05-19T21:10:14;20.0;34.6
78475;SHT31;67766;51.964;5.660;2023-05-19T21:12:44;19.9;34.7
78475;SHT31;67766;51.964;5.660;2023-05-19T21:15:14;19.9;34.9
78475;SHT31;67766;51.964;5.660;2023-05-19T21:17:43;19.8;35.0
78475;SHT31;67766;51.964;5.660;2023-05-19T21:20:15;19.8;35.2
78475;SHT31;67766;51.964;5.660;2023-05-19T21:22:44;19.7;35.1
78475;SHT31;67766;51.964;5.660;2023-05-19T21:25:14;19.7;35.3
78475;SHT31;67766;51.964;5.660;2023-05-19T21:27:44;19.6;35.4
78475;SHT31;67766;51.964;5.660;2023-05-19T21:30:14;19.6;35.3
78475;SHT31;67766;51.964;5.660;2023-05-19T21:32:45;19.5;35.6
78475;SHT31;67766;51.964;5.660;2023-05-19T21:35:15;19.5;35.8
78475;SHT31;67766;51.964;5.660;2023-05-19T21:37:45;19.5;36.2
78475;SHT31;67766;51.964;5.660;2023-05-19T21:40:15;19.4;36.5
78475;SHT31;67766;51.964;5.660;2023-05-19T21:42:44;19.3;36.7
78475;SHT31;67766;51.964;5.660;2023-05-19T21:45:14;19.3;37.0
78475;SHT31;67766;51.964;5.660;2023-05-19T21:47:44;19.2;37.1
78475;SHT31;67766;51.964;5.660;2023-05-19T21:50:13;19.2;37.4
78475;SHT31;67766;51.964;5.660;2023-05-19T21:52:43;19.1;37.5
78475;SHT31;67766;51.964;5.660;2023-05-19T21:55:13;19.1;37.7
78475;SHT31;67766;51.964;5.660;2023-05-19T21:57:43;19.0;38.0
78475;SHT31;67766;51.964;5.660;2023-05-19T22:00:13;19.0;38.3
78475;SHT31;67766;51.964;5.660;2023-05-19T22:02:43;18.9;38.8
78475;SHT31;67766;51.964;5.660;2023-05-19T22:05:12;18.8;39.0
78475;SHT31;67766;51.964;5.660;2023-05-19T22:07:42;18.8;39.4
78475;SHT31;67766;51.964;5.660;2023-05-19T22:10:13;18.8;39.6
78475;SHT31;67766;51.964;5.660;2023-05-19T22:12:45;18.7;39.9
78475;SHT31;67766;51.964;5.660;2023-05-19T22:15:15;18.7;40.3
78475;SHT31;67766;51.964;5.660;2023-05-19T22:17:44;18.6;40.5
78475;SHT31;67766;51.964;5.660;2023-05-19T22:20:14;18.6;40.9
78475;SHT31;67766;51.964;5.660;2023-05-19T22:22:43;18.5;41.3
78475;SHT31;67766;51.964;5.660;2023-05-19T22:25:13;18.5;41.5
78475;SHT31;67766;51.964;5.660;2023-05-19T22:27:43;18.5;41.7
78475;SHT31;67766;51.964;5.660;2023-05-19T22:30:13;18.4;41.9
78475;SHT31;67766;51.964;5.660;2023-05-19T22:32:42;18.4;42.1
78475;SHT31;67766;51.964;5.660;2023-05-19T22:35:12;18.3;42.2
78475;SHT31;67766;51.964;5.660;2023-05-19T22:37:41;18.3;42.5
78475;SHT31;67766;51.964;5.660;2023-05-19T22:40:11;18.3;42.7
78475;SHT31;67766;51.964;5.660;2023-05-19T22:42:41;18.2;42.7
78475;SHT31;67766;51.964;5.660;2023-05-19T22:45:13;18.2;42.9
78475;SHT31;67766;51.964;5.660;2023-05-19T22:47:44;18.2;43.0
78475;SHT31;67766;51.964;5.660;2023-05-19T22:50:14;18.2;43.1
78475;SHT31;67766;51.964;5.660;2023-05-19T22:52:44;18.1;43.3
78475;SHT31;67766;51.964;5.660;2023-05-19T22:55:14;18.1;43.2
78475;SHT31;67766;51.964;5.660;2023-05-19T22:57:43;18.1;43.5
78475;SHT31;67766;51.964;5.660;2023-05-19T23:00:14;18.0;43.6
78475;SHT31;67766;51.964;5.660;2023-05-19T23:02:45;18.0;43.7
78475;SHT31;67766;51.964;5.660;2023-05-19T23:05:14;18.0;43.8
78475;SHT31;67766;51.964;5.660;2023-05-19T23:07:44;17.9;43.9
78475;SHT31;67766;51.964;5.660;2023-05-19T23:10:16;17.9;44.0
78475;SHT31;67766;51.964;5.660;2023-05-19T23:12:45;17.9;44.2
78475;SHT31;67766;51.964;5.660;2023-05-19T23:15:15;17.8;44.3
78475;SHT31;67766;51.964;5.660;2023-05-19T23:17:45;17.8;44.3
78475;SHT31;67766;51.964;5.660;2023-05-19T23:20:14;17.8;44.3
78475;SHT31;67766;51.964;5.660;2023-05-19T23:22:44;17.7;44.3
78475;SHT31;67766;51.964;5.660;2023-05-19T23:25:13;17.7;44.5
78475;SHT31;67766;51.964;5.660;2023-05-19T23:27:43;17.7;44.5
78475;SHT31;67766;51.964;5.660;2023-05-19T23:30:15;17.7;44.6
78475;SHT31;67766;51.964;5.660;2023-05-19T23:32:44;17.6;44.6
78475;SHT31;67766;51.964;5.660;2023-05-19T23:35:16;17.6;44.7
78475;SHT31;67766;51.964;5.660;2023-05-19T23:37:46;17.6;44.8
78475;SHT31;67766;51.964;5.660;2023-05-19T23:40:16;17.5;44.8
78475;SHT31;67766;51.964;5.660;2023-05-19T23:42:45;17.5;45.0
78475;SHT31;67766;51.964;5.660;2023-05-19T23:45:15;17.5;45.1
78475;SHT31;67766;51.964;5.660;2023-05-19T23:47:45;17.4;45.3
78475;SHT31;67766;51.964;5.660;2023-05-19T23:50:14;17.4;45.4
78475;SHT31;67766;51.964;5.660;2023-05-19T23:52:44;17.4;45.3
78475;SHT31;67766;51.964;5.660;2023-05-19T23:55:13;17.3;45.4
78475;SHT31;67766;51.964;5.660;2023-05-19T23:57:43;17.3;45.4
